sensor_id;sensor_type;location;lat;lon;timestamp;P1;durP1;ratioP1;P2;durP2;ratioP2
75691;SDS011;64307;52.508;6.090;2023-12-04T00:00:18;16.47;;;7.70;;
75691;SDS011;64307;52.508;6.090;2023-12-04T00:02:43;15.38;;;7.80;;
75691;SDS011;64307;52.508;6.090;2023-12-04T00:05:08;18.13;;;8.27;;
75691;SDS011;64307;52.508;6.090;2023-12-04T00:07:33;22.00;;;9.43;;
75691;SDS011;64307;52.508;6.090;2023-12-04T00:09:58;16.70;;;8.10;;
75691;SDS011;64307;52.508;6.090;2023-12-04T00:12:24;19.70;;;7.82;;
75691;SDS011;64307;52.508;6.090;2023-12-04T00:14:49;19.97;;;10.70;;
75691;SDS011;64307;52.508;6.090;2023-12-04T00:17:14;16.70;;;8.53;;
75691;SDS011;64307;52.508;6.090;2023-12-04T00:19:39;16.67;;;8.17;;
75691;SDS011;64307;52.508;6.090;2023-12-04T00:22:06;24.27;;;10.77;;
75691;SDS011;64307;52.508;6.090;2023-12-04T00:24:31;15.93;;;7.67;;
75691;SDS011;64307;52.508;6.090;2023-12-04T00:26:56;17.47;;;7.93;;
75691;SDS011;64307;52.508;6.090;2023-12-04T00:29:21;21.03;;;9.97;;
75691;SDS011;64307;52.508;6.090;2023-12-04T00:31:46;11.10;;;5.97;;
75691;SDS011;64307;52.508;6.090;2023-12-04T00:34:11;17.50;;;8.20;;
75691;SDS011;64307;52.508;6.090;2023-12-04T00:36:37;13.70;;;6.57;;
75691;SDS011;64307;52.508;6.090;2023-12-04T00:39:03;20.00;;;8.88;;
75691;SDS011;64307;52.508;6.090;2023-12-04T00:41:29;22.45;;;10.18;;
75691;SDS011;64307;52.508;6.090;2023-12-04T00:43:54;14.55;;;5.45;;
75691;SDS011;64307;52.508;6.090;2023-12-04T00:46:19;23.13;;;10.45;;
75691;SDS011;64307;52.508;6.090;2023-12-04T00:48:44;17.63;;;8.53;;
75691;SDS011;64307;52.508;6.090;2023-12-04T00:51:11;18.80;;;8.70;;
75691;SDS011;64307;52.508;6.090;2023-12-04T00:53:36;23.30;;;10.33;;
75691;SDS011;64307;52.508;6.090;2023-12-04T00:56:01;13.35;;;5.93;;
75691;SDS011;64307;52.508;6.090;2023-12-04T00:58:26;24.63;;;12.10;;
75691;SDS011;64307;52.508;6.090;2023-12-04T01:00:51;23.70;;;9.87;;
75691;SDS011;64307;52.508;6.090;2023-12-04T01:03:17;22.00;;;9.25;;
75691;SDS011;64307;52.508;6.090;2023-12-04T01:05:42;23.17;;;9.63;;
75691;SDS011;64307;52.508;6.090;2023-12-04T01:08:07;22.87;;;9.03;;
75691;SDS011;64307;52.508;6.090;2023-12-04T01:10:33;25.47;;;10.33;;
75691;SDS011;64307;52.508;6.090;2023-12-04T01:12:58;24.23;;;10.17;;
75691;SDS011;64307;52.508;6.090;2023-12-04T01:15:23;20.10;;;9.83;;
75691;SDS011;64307;52.508;6.090;2023-12-04T01:17:51;18.75;;;8.35;;
75691;SDS011;64307;52.508;6.090;2023-12-04T01:20:17;11.88;;;5.45;;
75691;SDS011;64307;52.508;6.090;2023-12-04T01:22:43;18.60;;;8.85;;
75691;SDS011;64307;52.508;6.090;2023-12-04T01:25:08;21.73;;;9.40;;
75691;SDS011;64307;52.508;6.090;2023-12-04T01:27:34;15.25;;;6.70;;
75691;SDS011;64307;52.508;6.090;2023-12-04T01:30:03;21.75;;;9.00;;
75691;SDS011;64307;52.508;6.090;2023-12-04T01:32:28;24.58;;;10.80;;
75691;SDS011;64307;52.508;6.090;2023-12-04T01:34:53;18.47;;;8.30;;
75691;SDS011;64307;52.508;6.090;2023-12-04T01:37:19;23.90;;;10.40;;
75691;SDS011;64307;52.508;6.090;2023-12-04T01:39:44;17.20;;;7.70;;
75691;SDS011;64307;52.508;6.090;2023-12-04T01:42:09;19.17;;;8.20;;
75691;SDS011;64307;52.508;6.090;2023-12-04T01:44:35;22.23;;;9.25;;
75691;SDS011;64307;52.508;6.090;2023-12-04T01:47:02;14.60;;;6.67;;
75691;SDS011;64307;52.508;6.090;2023-12-04T01:49:27;21.92;;;9.75;;
75691;SDS011;64307;52.508;6.090;2023-12-04T01:51:53;18.80;;;8.07;;
75691;SDS011;64307;52.508;6.090;2023-12-04T01:54:18;19.27;;;8.43;;
75691;SDS011;64307;52.508;6.090;2023-12-04T01:56:43;18.40;;;7.80;;
75691;SDS011;64307;52.508;6.090;2023-12-04T01:59:09;14.83;;;6.30;;
75691;SDS011;64307;52.508;6.090;2023-12-04T02:01:34;21.10;;;9.45;;
75691;SDS011;64307;52.508;6.090;2023-12-04T02:04:00;20.50;;;9.23;;
75691;SDS011;64307;52.508;6.090;2023-12-04T02:06:27;16.58;;;7.03;;
75691;SDS011;64307;52.508;6.090;2023-12-04T02:08:55;16.43;;;6.23;;
75691;SDS011;64307;52.508;6.090;2023-12-04T02:11:21;21.80;;;10.65;;
75691;SDS011;64307;52.508;6.090;2023-12-04T02:13:47;11.60;;;4.80;;
75691;SDS011;64307;52.508;6.090;2023-12-04T02:16:12;17.90;;;7.32;;
75691;SDS011;64307;52.508;6.090;2023-12-04T02:23:30;23.35;;;11.30;;
75691;SDS011;64307;52.508;6.090;2023-12-04T02:25:57;19.27;;;8.13;;
75691;SDS011;64307;52.508;6.090;2023-12-04T02:28:24;11.93;;;5.75;;
75691;SDS011;64307;52.508;6.090;2023-12-04T02:30:50;13.65;;;5.82;;
75691;SDS011;64307;52.508;6.090;2023-12-04T02:33:15;26.48;;;9.45;;
75691;SDS011;64307;52.508;6.090;2023-12-04T02:35:43;20.73;;;8.60;;
75691;SDS011;64307;52.508;6.090;2023-12-04T02:38:09;11.40;;;6.20;;
75691;SDS011;64307;52.508;6.090;2023-12-04T02:40:34;17.33;;;7.63;;
75691;SDS011;64307;52.508;6.090;2023-12-04T02:42:59;20.87;;;7.73;;
75691;SDS011;64307;52.508;6.090;2023-12-04T02:45:25;25.88;;;8.82;;
75691;SDS011;64307;52.508;6.090;2023-12-04T02:47:50;17.15;;;7.40;;
75691;SDS011;64307;52.508;6.090;2023-12-04T02:50:15;11.67;;;3.73;;
75691;SDS011;64307;52.508;6.090;2023-12-04T02:52:40;17.97;;;7.23;;
75691;SDS011;64307;52.508;6.090;2023-12-04T02:55:05;21.73;;;10.03;;
75691;SDS011;64307;52.508;6.090;2023-12-04T02:57:31;17.70;;;7.97;;
75691;SDS011;64307;52.508;6.090;2023-12-04T02:59:56;20.87;;;8.70;;
75691;SDS011;64307;52.508;6.090;2023-12-04T03:02:21;22.40;;;9.43;;
75691;SDS011;64307;52.508;6.090;2023-12-04T03:04:46;22.73;;;8.57;;
75691;SDS011;64307;52.508;6.090;2023-12-04T03:07:11;19.30;;;7.80;;
75691;SDS011;64307;52.508;6.090;2023-12-04T03:09:36;19.00;;;8.23;;
75691;SDS011;64307;52.508;6.090;2023-12-04T03:12:02;18.27;;;7.63;;
75691;SDS011;64307;52.508;6.090;2023-12-04T03:14:27;20.25;;;9.90;;
75691;SDS011;64307;52.508;6.090;2023-12-04T03:16:52;21.47;;;9.00;;
75691;SDS011;64307;52.508;6.090;2023-12-04T03:19:17;14.60;;;5.63;;
75691;SDS011;64307;52.508;6.090;2023-12-04T03:21:43;14.57;;;6.70;;
75691;SDS011;64307;52.508;6.090;2023-12-04T03:24:08;17.83;;;8.27;;
75691;SDS011;64307;52.508;6.090;2023-12-04T03:26:33;22.50;;;8.03;;
75691;SDS011;64307;52.508;6.090;2023-12-04T03:28:58;12.10;;;5.73;;
75691;SDS011;64307;52.508;6.090;2023-12-04T03:31:23;21.50;;;7.50;;
75691;SDS011;64307;52.508;6.090;2023-12-04T03:33:49;20.92;;;9.13;;
75691;SDS011;64307;52.508;6.090;2023-12-04T03:36:14;17.00;;;7.97;;
75691;SDS011;64307;52.508;6.090;2023-12-04T03:38:39;7.73;;;4.43;;
75691;SDS011;64307;52.508;6.090;2023-12-04T03:41:04;4.90;;;2.63;;
75691;SDS011;64307;52.508;6.090;2023-12-04T03:43:29;14.57;;;6.40;;
75691;SDS011;64307;52.508;6.090;2023-12-04T03:45:55;14.17;;;7.97;;
75691;SDS011;64307;52.508;6.090;2023-12-04T03:48:20;17.77;;;7.53;;
75691;SDS011;64307;52.508;6.090;2023-12-04T03:50:45;16.25;;;6.75;;
75691;SDS011;64307;52.508;6.090;2023-12-04T03:53:10;14.60;;;6.13;;
75691;SDS011;64307;52.508;6.090;2023-12-04T03:55:35;20.70;;;7.23;;
75691;SDS011;64307;52.508;6.090;2023-12-04T03:58:01;13.73;;;6.23;;
75691;SDS011;64307;52.508;6.090;2023-12-04T04:00:26;15.53;;;6.20;;
75691;SDS011;64307;52.508;6.090;2023-12-04T04:02:51;13.03;;;5.60;;
75691;SDS011;64307;52.508;6.090;2023-12-04T04:05:16;15.27;;;6.68;;
75691;SDS011;64307;52.508;6.090;2023-12-04T04:07:42;17.53;;;6.97;;
75691;SDS011;64307;52.508;6.090;2023-12-04T04:10:07;17.07;;;7.77;;
75691;SDS011;64307;52.508;6.090;2023-12-04T04:12:33;14.32;;;6.90;;
75691;SDS011;64307;52.508;6.090;2023-12-04T04:14:58;18.83;;;10.38;;
75691;SDS011;64307;52.508;6.090;2023-12-04T04:17:23;12.17;;;4.27;;
75691;SDS011;64307;52.508;6.090;2023-12-04T04:19:54;15.32;;;6.80;;
75691;SDS011;64307;52.508;6.090;2023-12-04T04:22:20;16.67;;;7.55;;
75691;SDS011;64307;52.508;6.090;2023-12-04T04:24:45;15.52;;;7.30;;
75691;SDS011;64307;52.508;6.090;2023-12-04T04:27:10;15.40;;;6.33;;
75691;SDS011;64307;52.508;6.090;2023-12-04T04:29:35;17.00;;;7.20;;
75691;SDS011;64307;52.508;6.090;2023-12-04T04:32:00;13.87;;;6.80;;
75691;SDS011;64307;52.508;6.090;2023-12-04T04:34:26;13.80;;;6.17;;
75691;SDS011;64307;52.508;6.090;2023-12-04T04:36:51;11.30;;;4.93;;
75691;SDS011;64307;52.508;6.090;2023-12-04T04:39:16;16.98;;;6.15;;
75691;SDS011;64307;52.508;6.090;2023-12-04T04:41:41;10.50;;;4.63;;
75691;SDS011;64307;52.508;6.090;2023-12-04T04:44:09;13.32;;;5.55;;
75691;SDS011;64307;52.508;6.090;2023-12-04T04:46:34;13.40;;;5.67;;
75691;SDS011;64307;52.508;6.090;2023-12-04T04:48:59;12.57;;;5.50;;
75691;SDS011;64307;52.508;6.090;2023-12-04T04:51:25;16.03;;;5.93;;
75691;SDS011;64307;52.508;6.090;2023-12-04T04:53:50;8.33;;;4.70;;
75691;SDS011;64307;52.508;6.090;2023-12-04T04:56:15;14.30;;;6.40;;
75691;SDS011;64307;52.508;6.090;2023-12-04T04:58:40;13.73;;;5.72;;
75691;SDS011;64307;52.508;6.090;2023-12-04T05:01:06;11.80;;;5.83;;
75691;SDS011;64307;52.508;6.090;2023-12-04T05:03:31;13.00;;;7.00;;
75691;SDS011;64307;52.508;6.090;2023-12-04T05:05:56;15.90;;;6.10;;
75691;SDS011;64307;52.508;6.090;2023-12-04T05:08:21;11.13;;;4.83;;
75691;SDS011;64307;52.508;6.090;2023-12-04T05:10:47;15.35;;;6.03;;
75691;SDS011;64307;52.508;6.090;2023-12-04T05:13:12;13.80;;;6.57;;
75691;SDS011;64307;52.508;6.090;2023-12-04T05:15:37;12.67;;;6.33;;
75691;SDS011;64307;52.508;6.090;2023-12-04T05:18:02;12.13;;;7.22;;
75691;SDS011;64307;52.508;6.090;2023-12-04T05:20:27;14.63;;;6.63;;
75691;SDS011;64307;52.508;6.090;2023-12-04T05:22:52;15.07;;;6.07;;
75691;SDS011;64307;52.508;6.090;2023-12-04T05:25:19;8.40;;;3.90;;
75691;SDS011;64307;52.508;6.090;2023-12-04T05:27:44;12.48;;;6.97;;
75691;SDS011;64307;52.508;6.090;2023-12-04T05:30:10;14.70;;;6.28;;
75691;SDS011;64307;52.508;6.090;2023-12-04T05:32:36;11.93;;;7.10;;
75691;SDS011;64307;52.508;6.090;2023-12-04T05:35:01;12.75;;;6.90;;
75691;SDS011;64307;52.508;6.090;2023-12-04T05:37:26;9.47;;;3.83;;
75691;SDS011;64307;52.508;6.090;2023-12-04T05:39:51;11.43;;;5.13;;
75691;SDS011;64307;52.508;6.090;2023-12-04T05:42:16;10.13;;;4.65;;
75691;SDS011;64307;52.508;6.090;2023-12-04T05:44:42;10.20;;;4.23;;
75691;SDS011;64307;52.508;6.090;2023-12-04T05:47:07;13.10;;;5.83;;
75691;SDS011;64307;52.508;6.090;2023-12-04T05:49:33;6.95;;;3.63;;
75691;SDS011;64307;52.508;6.090;2023-12-04T05:51:58;8.23;;;4.57;;
75691;SDS011;64307;52.508;6.090;2023-12-04T05:54:23;9.93;;;3.60;;
75691;SDS011;64307;52.508;6.090;2023-12-04T05:56:49;7.40;;;3.28;;
75691;SDS011;64307;52.508;6.090;2023-12-04T05:59:14;10.50;;;4.10;;
75691;SDS011;64307;52.508;6.090;2023-12-04T06:01:40;8.63;;;3.90;;
75691;SDS011;64307;52.508;6.090;2023-12-04T06:04:05;7.50;;;3.17;;
75691;SDS011;64307;52.508;6.090;2023-12-04T06:06:30;15.70;;;7.57;;
75691;SDS011;64307;52.508;6.090;2023-12-04T06:08:55;14.27;;;5.10;;
75691;SDS011;64307;52.508;6.090;2023-12-04T06:11:20;13.70;;;5.47;;
75691;SDS011;64307;52.508;6.090;2023-12-04T06:13:46;14.67;;;4.67;;
75691;SDS011;64307;52.508;6.090;2023-12-04T06:16:11;12.70;;;5.50;;
75691;SDS011;64307;52.508;6.090;2023-12-04T06:18:36;11.93;;;5.77;;
75691;SDS011;64307;52.508;6.090;2023-12-04T06:21:02;11.60;;;5.38;;
75691;SDS011;64307;52.508;6.090;2023-12-04T06:23:27;10.68;;;5.85;;
75691;SDS011;64307;52.508;6.090;2023-12-04T06:25:53;11.67;;;5.70;;
75691;SDS011;64307;52.508;6.090;2023-12-04T06:28:18;13.57;;;6.90;;
75691;SDS011;64307;52.508;6.090;2023-12-04T06:30:43;10.50;;;4.95;;
75691;SDS011;64307;52.508;6.090;2023-12-04T06:33:09;12.07;;;5.25;;
75691;SDS011;64307;52.508;6.090;2023-12-04T06:35:34;13.63;;;4.28;;
75691;SDS011;64307;52.508;6.090;2023-12-04T06:38:03;13.48;;;6.85;;
75691;SDS011;64307;52.508;6.090;2023-12-04T06:40:30;11.50;;;5.97;;
75691;SDS011;64307;52.508;6.090;2023-12-04T06:42:57;10.63;;;4.25;;
75691;SDS011;64307;52.508;6.090;2023-12-04T06:45:22;9.43;;;4.80;;
75691;SDS011;64307;52.508;6.090;2023-12-04T06:47:47;11.88;;;5.57;;
75691;SDS011;64307;52.508;6.090;2023-12-04T06:50:14;12.93;;;5.15;;
75691;SDS011;64307;52.508;6.090;2023-12-04T06:52:40;5.67;;;2.97;;
75691;SDS011;64307;52.508;6.090;2023-12-04T06:55:05;11.63;;;4.77;;
75691;SDS011;64307;52.508;6.090;2023-12-04T06:57:30;10.27;;;4.10;;
75691;SDS011;64307;52.508;6.090;2023-12-04T06:59:55;8.10;;;4.10;;
75691;SDS011;64307;52.508;6.090;2023-12-04T07:02:21;9.43;;;5.13;;
75691;SDS011;64307;52.508;6.090;2023-12-04T07:04:46;10.40;;;4.43;;
75691;SDS011;64307;52.508;6.090;2023-12-04T07:07:11;6.60;;;3.20;;
75691;SDS011;64307;52.508;6.090;2023-12-04T07:09:37;9.27;;;4.25;;
75691;SDS011;64307;52.508;6.090;2023-12-04T07:12:02;9.57;;;4.00;;
75691;SDS011;64307;52.508;6.090;2023-12-04T07:14:27;6.50;;;3.00;;
75691;SDS011;64307;52.508;6.090;2023-12-04T07:16:53;11.57;;;5.17;;
75691;SDS011;64307;52.508;6.090;2023-12-04T07:19:18;9.30;;;4.15;;
75691;SDS011;64307;52.508;6.090;2023-12-04T07:21:43;8.57;;;5.17;;
75691;SDS011;64307;52.508;6.090;2023-12-04T07:24:08;6.93;;;2.83;;
75691;SDS011;64307;52.508;6.090;2023-12-04T07:26:34;9.67;;;4.60;;
75691;SDS011;64307;52.508;6.090;2023-12-04T07:29:00;12.13;;;4.10;;
75691;SDS011;64307;52.508;6.090;2023-12-04T07:31:25;12.70;;;3.53;;
75691;SDS011;64307;52.508;6.090;2023-12-04T07:33:52;7.00;;;3.05;;
75691;SDS011;64307;52.508;6.090;2023-12-04T07:36:17;5.60;;;2.85;;
75691;SDS011;64307;52.508;6.090;2023-12-04T07:38:42;6.50;;;2.97;;
75691;SDS011;64307;52.508;6.090;2023-12-04T07:41:07;12.90;;;5.10;;
75691;SDS011;64307;52.508;6.090;2023-12-04T07:43:32;9.23;;;4.83;;
75691;SDS011;64307;52.508;6.090;2023-12-04T07:45:58;8.93;;;4.27;;
75691;SDS011;64307;52.508;6.090;2023-12-04T07:48:23;8.13;;;3.17;;
75691;SDS011;64307;52.508;6.090;2023-12-04T07:50:48;7.67;;;3.50;;
75691;SDS011;64307;52.508;6.090;2023-12-04T07:53:13;10.53;;;4.00;;
75691;SDS011;64307;52.508;6.090;2023-12-04T07:55:39;7.00;;;3.70;;
75691;SDS011;64307;52.508;6.090;2023-12-04T07:58:04;10.15;;;3.90;;
75691;SDS011;64307;52.508;6.090;2023-12-04T08:00:29;9.23;;;3.50;;
75691;SDS011;64307;52.508;6.090;2023-12-04T08:02:54;4.97;;;1.88;;
75691;SDS011;64307;52.508;6.090;2023-12-04T08:05:19;10.60;;;4.90;;
75691;SDS011;64307;52.508;6.090;2023-12-04T08:07:44;5.37;;;2.77;;
75691;SDS011;64307;52.508;6.090;2023-12-04T08:10:10;8.73;;;3.38;;
75691;SDS011;64307;52.508;6.090;2023-12-04T08:12:35;7.30;;;3.57;;
75691;SDS011;64307;52.508;6.090;2023-12-04T08:15:00;6.10;;;2.43;;
75691;SDS011;64307;52.508;6.090;2023-12-04T08:17:26;7.70;;;3.72;;
75691;SDS011;64307;52.508;6.090;2023-12-04T08:19:52;7.93;;;4.20;;
75691;SDS011;64307;52.508;6.090;2023-12-04T08:22:17;8.50;;;3.57;;
75691;SDS011;64307;52.508;6.090;2023-12-04T08:24:42;7.45;;;3.30;;
75691;SDS011;64307;52.508;6.090;2023-12-04T08:27:07;7.27;;;3.40;;
75691;SDS011;64307;52.508;6.090;2023-12-04T08:29:33;7.87;;;3.90;;
75691;SDS011;64307;52.508;6.090;2023-12-04T08:31:58;4.23;;;2.10;;
75691;SDS011;64307;52.508;6.090;2023-12-04T08:34:23;7.43;;;3.63;;
75691;SDS011;64307;52.508;6.090;2023-12-04T08:36:48;7.18;;;3.35;;
75691;SDS011;64307;52.508;6.090;2023-12-04T08:39:14;2.97;;;1.55;;
75691;SDS011;64307;52.508;6.090;2023-12-04T08:41:39;5.27;;;2.73;;
75691;SDS011;64307;52.508;6.090;2023-12-04T08:44:04;5.18;;;2.42;;
75691;SDS011;64307;52.508;6.090;2023-12-04T08:46:29;5.87;;;2.60;;
75691;SDS011;64307;52.508;6.090;2023-12-04T08:48:54;6.43;;;2.58;;
75691;SDS011;64307;52.508;6.090;2023-12-04T08:51:19;6.57;;;4.47;;
75691;SDS011;64307;52.508;6.090;2023-12-04T08:53:45;5.67;;;3.13;;
75691;SDS011;64307;52.508;6.090;2023-12-04T08:56:10;6.00;;;3.13;;
75691;SDS011;64307;52.508;6.090;2023-12-04T08:58:36;3.45;;;1.60;;
75691;SDS011;64307;52.508;6.090;2023-12-04T09:01:01;6.65;;;2.92;;
75691;SDS011;64307;52.508;6.090;2023-12-04T09:03:26;9.93;;;4.20;;
75691;SDS011;64307;52.508;6.090;2023-12-04T09:05:52;7.70;;;3.43;;
75691;SDS011;64307;52.508;6.090;2023-12-04T09:08:17;7.57;;;3.10;;
75691;SDS011;64307;52.508;6.090;2023-12-04T09:10:43;7.65;;;3.78;;
75691;SDS011;64307;52.508;6.090;2023-12-04T09:13:10;5.45;;;3.03;;
75691;SDS011;64307;52.508;6.090;2023-12-04T09:15:35;3.00;;;1.00;;
75691;SDS011;64307;52.508;6.090;2023-12-04T09:18:00;8.27;;;3.35;;
75691;SDS011;64307;52.508;6.090;2023-12-04T09:20:25;7.30;;;3.67;;
75691;SDS011;64307;52.508;6.090;2023-12-04T09:22:50;3.90;;;1.93;;
75691;SDS011;64307;52.508;6.090;2023-12-04T09:25:16;8.93;;;3.45;;
75691;SDS011;64307;52.508;6.090;2023-12-04T09:27:41;4.87;;;1.77;;
75691;SDS011;64307;52.508;6.090;2023-12-04T09:30:06;9.50;;;3.00;;
75691;SDS011;64307;52.508;6.090;2023-12-04T09:32:31;7.43;;;4.00;;
75691;SDS011;64307;52.508;6.090;2023-12-04T09:34:57;6.63;;;2.53;;
75691;SDS011;64307;52.508;6.090;2023-12-04T09:37:22;3.57;;;2.17;;
75691;SDS011;64307;52.508;6.090;2023-12-04T09:39:47;6.90;;;3.10;;
75691;SDS011;64307;52.508;6.090;2023-12-04T09:42:14;7.32;;;3.65;;
75691;SDS011;64307;52.508;6.090;2023-12-04T09:44:40;7.70;;;4.47;;
75691;SDS011;64307;52.508;6.090;2023-12-04T09:47:06;2.85;;;1.80;;
75691;SDS011;64307;52.508;6.090;2023-12-04T09:49:32;5.78;;;3.45;;
75691;SDS011;64307;52.508;6.090;2023-12-04T09:51:57;8.70;;;2.70;;
75691;SDS011;64307;52.508;6.090;2023-12-04T09:54:23;8.98;;;3.85;;
75691;SDS011;64307;52.508;6.090;2023-12-04T09:56:49;7.30;;;3.35;;
75691;SDS011;64307;52.508;6.090;2023-12-04T09:59:14;5.95;;;3.05;;
75691;SDS011;64307;52.508;6.090;2023-12-04T10:01:40;4.28;;;2.28;;
75691;SDS011;64307;52.508;6.090;2023-12-04T10:04:05;7.15;;;2.83;;
75691;SDS011;64307;52.508;6.090;2023-12-04T10:06:30;8.23;;;3.45;;
75691;SDS011;64307;52.508;6.090;2023-12-04T10:08:56;6.25;;;3.10;;
75691;SDS011;64307;52.508;6.090;2023-12-04T10:13:48;8.70;;;3.25;;
75691;SDS011;64307;52.508;6.090;2023-12-04T10:16:13;7.43;;;4.13;;
75691;SDS011;64307;52.508;6.090;2023-12-04T10:18:38;5.23;;;2.33;;
75691;SDS011;64307;52.508;6.090;2023-12-04T10:21:03;6.20;;;2.67;;
75691;SDS011;64307;52.508;6.090;2023-12-04T10:23:36;6.45;;;2.45;;
75691;SDS011;64307;52.508;6.090;2023-12-04T10:26:02;7.50;;;3.22;;
75691;SDS011;64307;52.508;6.090;2023-12-04T10:28:27;7.13;;;3.72;;
75691;SDS011;64307;52.508;6.090;2023-12-04T10:30:53;11.43;;;4.28;;
75691;SDS011;64307;52.508;6.090;2023-12-04T10:33:18;3.90;;;2.17;;
75691;SDS011;64307;52.508;6.090;2023-12-04T10:35:43;8.03;;;3.27;;
75691;SDS011;64307;52.508;6.090;2023-12-04T10:38:09;5.10;;;3.10;;
75691;SDS011;64307;52.508;6.090;2023-12-04T10:40:35;7.93;;;3.83;;
75691;SDS011;64307;52.508;6.090;2023-12-04T10:43:19;9.95;;;4.00;;
75691;SDS011;64307;52.508;6.090;2023-12-04T10:45:47;12.35;;;4.13;;
75691;SDS011;64307;52.508;6.090;2023-12-04T10:48:13;8.27;;;3.28;;
75691;SDS011;64307;52.508;6.090;2023-12-04T10:50:40;6.22;;;3.30;;
75691;SDS011;64307;52.508;6.090;2023-12-04T10:53:24;6.28;;;2.75;;
75691;SDS011;64307;52.508;6.090;2023-12-04T10:55:49;5.95;;;2.28;;
75691;SDS011;64307;52.508;6.090;2023-12-04T10:58:16;5.50;;;3.10;;
75691;SDS011;64307;52.508;6.090;2023-12-04T11:00:43;7.10;;;3.35;;
75691;SDS011;64307;52.508;6.090;2023-12-04T11:03:09;7.53;;;3.75;;
75691;SDS011;64307;52.508;6.090;2023-12-04T11:05:39;6.60;;;3.50;;
75691;SDS011;64307;52.508;6.090;2023-12-04T11:08:06;7.82;;;2.88;;
75691;SDS011;64307;52.508;6.090;2023-12-04T11:10:32;6.85;;;3.33;;
75691;SDS011;64307;52.508;6.090;2023-12-04T11:16:18;7.60;;;3.60;;
75691;SDS011;64307;52.508;6.090;2023-12-04T11:18:43;7.40;;;3.72;;
75691;SDS011;64307;52.508;6.090;2023-12-04T11:21:09;9.18;;;4.25;;
75691;SDS011;64307;52.508;6.090;2023-12-04T11:23:35;8.55;;;4.50;;
75691;SDS011;64307;52.508;6.090;2023-12-04T11:26:03;8.35;;;3.95;;
75691;SDS011;64307;52.508;6.090;2023-12-04T11:28:29;8.07;;;2.88;;
75691;SDS011;64307;52.508;6.090;2023-12-04T11:30:55;6.05;;;2.20;;
75691;SDS011;64307;52.508;6.090;2023-12-04T11:33:20;8.30;;;3.13;;
75691;SDS011;64307;52.508;6.090;2023-12-04T11:35:47;6.40;;;3.20;;
75691;SDS011;64307;52.508;6.090;2023-12-04T11:38:16;8.02;;;3.45;;
75691;SDS011;64307;52.508;6.090;2023-12-04T11:40:42;8.05;;;4.28;;
75691;SDS011;64307;52.508;6.090;2023-12-04T11:43:26;8.00;;;3.35;;
75691;SDS011;64307;52.508;6.090;2023-12-04T11:45:51;7.07;;;3.55;;
75691;SDS011;64307;52.508;6.090;2023-12-04T11:48:16;4.72;;;2.55;;
75691;SDS011;64307;52.508;6.090;2023-12-04T11:50:47;7.85;;;3.30;;
75691;SDS011;64307;52.508;6.090;2023-12-04T11:53:12;7.63;;;3.40;;
75691;SDS011;64307;52.508;6.090;2023-12-04T11:55:39;9.55;;;4.15;;
75691;SDS011;64307;52.508;6.090;2023-12-04T11:58:08;7.28;;;3.65;;
75691;SDS011;64307;52.508;6.090;2023-12-04T12:00:34;9.05;;;3.50;;
75691;SDS011;64307;52.508;6.090;2023-12-04T12:03:00;6.68;;;3.83;;
75691;SDS011;64307;52.508;6.090;2023-12-04T12:05:27;7.82;;;2.97;;
75691;SDS011;64307;52.508;6.090;2023-12-04T12:07:53;6.30;;;3.05;;
75691;SDS011;64307;52.508;6.090;2023-12-04T12:10:19;8.65;;;3.67;;
75691;SDS011;64307;52.508;6.090;2023-12-04T12:12:44;9.03;;;3.60;;
75691;SDS011;64307;52.508;6.090;2023-12-04T12:15:12;11.33;;;3.03;;
75691;SDS011;64307;52.508;6.090;2023-12-04T12:17:38;8.00;;;4.05;;
75691;SDS011;64307;52.508;6.090;2023-12-04T12:20:05;8.50;;;3.72;;
75691;SDS011;64307;52.508;6.090;2023-12-04T12:22:31;6.68;;;3.55;;
75691;SDS011;64307;52.508;6.090;2023-12-04T12:24:56;6.23;;;2.93;;
75691;SDS011;64307;52.508;6.090;2023-12-04T12:27:22;7.40;;;3.53;;
75691;SDS011;64307;52.508;6.090;2023-12-04T12:29:49;5.95;;;3.05;;
75691;SDS011;64307;52.508;6.090;2023-12-04T12:32:15;6.07;;;2.40;;
75691;SDS011;64307;52.508;6.090;2023-12-04T12:34:40;6.63;;;2.87;;
75691;SDS011;64307;52.508;6.090;2023-12-04T12:37:05;6.05;;;2.92;;
75691;SDS011;64307;52.508;6.090;2023-12-04T12:39:31;10.33;;;3.50;;
75691;SDS011;64307;52.508;6.090;2023-12-04T12:41:56;7.95;;;3.00;;
75691;SDS011;64307;52.508;6.090;2023-12-04T12:44:22;9.83;;;3.47;;
75691;SDS011;64307;52.508;6.090;2023-12-04T12:46:47;5.97;;;2.53;;
75691;SDS011;64307;52.508;6.090;2023-12-04T12:49:14;5.05;;;2.63;;
75691;SDS011;64307;52.508;6.090;2023-12-04T12:51:39;4.75;;;2.45;;
75691;SDS011;64307;52.508;6.090;2023-12-04T12:54:05;6.88;;;3.55;;
75691;SDS011;64307;52.508;6.090;2023-12-04T12:56:30;8.43;;;3.22;;
75691;SDS011;64307;52.508;6.090;2023-12-04T12:58:56;7.32;;;3.20;;
75691;SDS011;64307;52.508;6.090;2023-12-04T13:01:22;7.05;;;3.22;;
75691;SDS011;64307;52.508;6.090;2023-12-04T13:03:47;6.72;;;4.00;;
75691;SDS011;64307;52.508;6.090;2023-12-04T13:06:13;8.30;;;3.30;;
75691;SDS011;64307;52.508;6.090;2023-12-04T13:08:38;7.05;;;2.72;;
75691;SDS011;64307;52.508;6.090;2023-12-04T13:11:03;6.53;;;3.10;;
75691;SDS011;64307;52.508;6.090;2023-12-04T13:13:29;4.70;;;1.98;;
75691;SDS011;64307;52.508;6.090;2023-12-04T13:15:55;7.70;;;3.30;;
75691;SDS011;64307;52.508;6.090;2023-12-04T13:18:20;6.10;;;2.73;;
75691;SDS011;64307;52.508;6.090;2023-12-04T13:20:45;5.40;;;2.37;;
75691;SDS011;64307;52.508;6.090;2023-12-04T13:23:10;5.43;;;2.83;;
75691;SDS011;64307;52.508;6.090;2023-12-04T13:25:35;5.63;;;2.57;;
75691;SDS011;64307;52.508;6.090;2023-12-04T13:28:00;6.53;;;2.40;;
75691;SDS011;64307;52.508;6.090;2023-12-04T13:30:26;6.07;;;2.73;;
75691;SDS011;64307;52.508;6.090;2023-12-04T13:32:51;6.40;;;2.93;;
75691;SDS011;64307;52.508;6.090;2023-12-04T13:35:16;7.28;;;3.13;;
75691;SDS011;64307;52.508;6.090;2023-12-04T13:37:41;9.03;;;2.87;;
75691;SDS011;64307;52.508;6.090;2023-12-04T13:40:07;5.97;;;2.63;;
75691;SDS011;64307;52.508;6.090;2023-12-04T13:42:33;5.32;;;3.40;;
75691;SDS011;64307;52.508;6.090;2023-12-04T13:45:17;6.43;;;3.08;;
75691;SDS011;64307;52.508;6.090;2023-12-04T13:47:42;8.55;;;3.15;;
75691;SDS011;64307;52.508;6.090;2023-12-04T13:50:09;5.88;;;3.28;;
75691;SDS011;64307;52.508;6.090;2023-12-04T13:52:34;7.70;;;3.22;;
75691;SDS011;64307;52.508;6.090;2023-12-04T13:55:00;8.32;;;3.50;;
75691;SDS011;64307;52.508;6.090;2023-12-04T13:57:25;7.07;;;3.45;;
75691;SDS011;64307;52.508;6.090;2023-12-04T13:59:58;7.88;;;3.50;;
75691;SDS011;64307;52.508;6.090;2023-12-04T14:02:24;12.45;;;4.03;;
75691;SDS011;64307;52.508;6.090;2023-12-04T14:04:49;7.18;;;2.90;;
75691;SDS011;64307;52.508;6.090;2023-12-04T14:07:14;12.53;;;3.50;;
75691;SDS011;64307;52.508;6.090;2023-12-04T14:09:40;7.47;;;2.97;;
75691;SDS011;64307;52.508;6.090;2023-12-04T14:12:06;9.68;;;3.88;;
75691;SDS011;64307;52.508;6.090;2023-12-04T14:14:31;6.97;;;3.10;;
75691;SDS011;64307;52.508;6.090;2023-12-04T14:16:58;7.00;;;3.10;;
75691;SDS011;64307;52.508;6.090;2023-12-04T14:19:23;7.77;;;3.27;;
75691;SDS011;64307;52.508;6.090;2023-12-04T14:21:48;6.07;;;2.57;;
75691;SDS011;64307;52.508;6.090;2023-12-04T14:24:13;6.93;;;3.73;;
75691;SDS011;64307;52.508;6.090;2023-12-04T14:26:39;7.43;;;3.20;;
75691;SDS011;64307;52.508;6.090;2023-12-04T14:29:04;5.40;;;2.77;;
75691;SDS011;64307;52.508;6.090;2023-12-04T14:31:29;9.80;;;3.27;;
75691;SDS011;64307;52.508;6.090;2023-12-04T14:33:55;8.82;;;3.60;;
75691;SDS011;64307;52.508;6.090;2023-12-04T14:36:20;8.57;;;3.53;;
75691;SDS011;64307;52.508;6.090;2023-12-04T14:38:45;7.83;;;3.87;;
75691;SDS011;64307;52.508;6.090;2023-12-04T14:41:10;6.43;;;2.97;;